In Rescue
 
Open Full Screen Window  High Contrast Mode
Wind Gusting 00 knots
07
May 25, 2022 10:20 PM EDT
Present Weather: Rain
Weather Information
Wind Direction
  070 °
Wind Speed
  07 kt (8 mph)
Wind Gust
  00 kt (0 mph)
Altimeter
29.92 in
Visibility
10 SM
Temperature
12° C
54° F
Dewpoint
12° C
54° F
Humidity
100%
Sky Condition
Overcast @ 600 ft
IFR

METAR KMGN 260220Z AUTO 07007KT 10SM RA OVC006 12/12 A2992 RMK AO2 T01220121

FAA Disclaimer: The data displayed is for advisory purposes only and is not to be used for flight planning or operations.